createdAt,value
2019-03-23T00:00:06.720Z,5.50
2019-03-23T00:02:37.113Z,5.60
2019-03-23T00:05:08.629Z,5.60
2019-03-23T00:07:39.358Z,5.70
2019-03-23T00:10:10.799Z,5.70
2019-03-23T00:12:41.466Z,5.70
2019-03-23T00:15:12.915Z,5.80
2019-03-23T00:17:43.347Z,5.80
2019-03-23T00:20:13.913Z,5.80
2019-03-23T00:22:44.402Z,5.80
2019-03-23T00:25:14.983Z,5.80
2019-03-23T00:27:45.413Z,5.80
2019-03-23T00:30:16.249Z,5.70
2019-03-23T00:32:46.708Z,5.80
2019-03-23T00:35:17.173Z,5.80
2019-03-23T00:37:47.680Z,5.70
2019-03-23T00:40:18.354Z,5.80
2019-03-23T00:42:48.955Z,5.80
2019-03-23T00:45:19.424Z,5.80
2019-03-23T00:47:49.864Z,5.80
2019-03-23T00:50:20.299Z,5.80
2019-03-23T00:52:50.818Z,5.70
2019-03-23T00:55:21.413Z,5.80
2019-03-23T00:57:52.262Z,5.80
2019-03-23T01:00:22.926Z,5.80
2019-03-23T01:02:53.410Z,5.80
2019-03-23T01:05:23.841Z,5.80
2019-03-23T01:07:54.447Z,5.90
2019-03-23T01:10:24.905Z,5.90
2019-03-23T01:12:55.948Z,5.80
2019-03-23T01:15:26.447Z,5.80
2019-03-23T01:17:56.921Z,5.90
2019-03-23T01:20:27.576Z,5.80
2019-03-23T01:22:58.173Z,5.80
2019-03-23T01:25:28.597Z,5.80
2019-03-23T01:27:59.516Z,5.70
2019-03-23T01:30:30.063Z,5.80
2019-03-23T01:33:00.504Z,5.80
2019-03-23T01:35:30.939Z,5.70
2019-03-23T01:38:01.445Z,5.70
2019-03-23T01:40:32.214Z,5.80
2019-03-23T01:43:02.716Z,5.90
2019-03-23T01:45:33.186Z,5.80
2019-03-23T01:48:03.678Z,5.80
2019-03-23T01:50:34.079Z,5.80
2019-03-23T01:53:04.577Z,5.80
2019-03-23T01:55:35.038Z,5.80
2019-03-23T01:58:05.587Z,5.80
2019-03-23T02:00:36.238Z,5.90
2019-03-23T02:03:07.016Z,5.90
2019-03-23T02:05:37.501Z,5.90
2019-03-23T02:08:08.010Z,5.90
2019-03-23T02:10:38.435Z,5.80
2019-03-23T02:13:09.133Z,5.90
2019-03-23T02:15:39.630Z,5.80
2019-03-23T02:18:10.094Z,5.80
2019-03-23T02:20:40.556Z,5.90
2019-03-23T02:23:11.016Z,5.90
2019-03-23T02:25:41.493Z,5.90
2019-03-23T02:28:12.308Z,5.90
2019-03-23T02:30:42.935Z,6.00
2019-03-23T02:33:13.365Z,6.00
2019-03-23T02:35:43.845Z,6.00
2019-03-23T02:38:14.368Z,6.00
2019-03-23T02:40:45.339Z,5.90
2019-03-23T02:43:16.138Z,5.90
2019-03-23T02:45:46.601Z,6.00
2019-03-23T02:48:17.108Z,6.10
2019-03-23T02:50:47.547Z,6.00
2019-03-23T02:53:18.009Z,6.00
2019-03-23T02:55:48.471Z,6.00
2019-03-23T02:58:19.310Z,6.00
2019-03-23T03:00:49.794Z,6.00
2019-03-23T03:03:20.227Z,6.00
2019-03-23T03:05:50.715Z,5.90
2019-03-23T03:08:21.207Z,6.00
2019-03-23T03:10:51.712Z,6.00
2019-03-23T03:13:22.398Z,5.90
2019-03-23T03:15:52.934Z,6.00
2019-03-23T03:18:23.375Z,6.00
2019-03-23T03:20:53.799Z,6.00
2019-03-23T03:23:24.328Z,5.90
2019-03-23T03:25:54.744Z,6.00
2019-03-23T03:28:25.541Z,6.00
2019-03-23T03:30:56.013Z,5.90
2019-03-23T03:33:26.454Z,6.00
2019-03-23T03:35:57.037Z,6.00
2019-03-23T03:38:27.541Z,6.00
2019-03-23T03:40:58.366Z,6.00
2019-03-23T03:43:29.208Z,6.00
2019-03-23T03:45:59.956Z,6.00
2019-03-23T03:48:30.380Z,6.00
2019-03-23T03:51:01.055Z,6.10
2019-03-23T03:53:31.580Z,6.10
2019-03-23T03:56:02.025Z,6.10
2019-03-23T03:58:32.852Z,6.10
2019-03-23T04:01:03.426Z,6.10
2019-03-23T04:03:33.830Z,6.10
2019-03-23T04:06:04.371Z,6.20
2019-03-23T04:08:35.132Z,6.10
2019-03-23T04:11:05.593Z,6.10
2019-03-23T04:13:36.419Z,6.10
2019-03-23T04:16:07.002Z,6.10
2019-03-23T04:18:37.467Z,6.10
2019-03-23T04:21:07.891Z,6.10
2019-03-23T04:23:38.367Z,6.10
2019-03-23T04:26:09.094Z,6.10
2019-03-23T04:28:39.873Z,6.10
2019-03-23T04:31:10.403Z,6.10
2019-03-23T04:33:40.983Z,6.10
2019-03-23T04:36:11.403Z,6.10
2019-03-23T04:38:41.888Z,6.10
2019-03-23T04:41:12.823Z,6.10
2019-03-23T04:43:43.623Z,6.00
2019-03-23T04:46:14.079Z,6.10
2019-03-23T04:48:44.502Z,6.10
2019-03-23T04:51:14.980Z,6.10
2019-03-23T04:53:45.458Z,6.10
2019-03-23T04:56:15.933Z,6.20
2019-03-23T04:58:46.681Z,6.20
2019-03-23T05:01:17.156Z,6.20
2019-03-23T05:03:47.710Z,6.20
2019-03-23T05:06:18.215Z,6.20
2019-03-23T05:08:48.769Z,6.10
2019-03-23T05:11:19.204Z,6.10
2019-03-23T05:13:49.962Z,6.10
2019-03-23T05:16:20.443Z,6.10
2019-03-23T05:18:50.962Z,6.10
2019-03-23T05:21:21.446Z,6.10
2019-03-23T05:23:51.912Z,6.00
2019-03-23T05:26:22.377Z,6.00
2019-03-23T05:28:53.135Z,6.00
2019-03-23T05:31:23.649Z,6.10
2019-03-23T05:33:54.102Z,6.00
2019-03-23T05:36:24.487Z,5.90
2019-03-23T05:38:54.920Z,5.80
2019-03-23T05:41:25.746Z,5.70
2019-03-23T05:43:56.687Z,5.70
2019-03-23T05:46:27.146Z,5.60
2019-03-23T05:48:57.631Z,5.50
2019-03-23T05:51:28.054Z,5.50
2019-03-23T05:53:58.521Z,5.40
2019-03-23T05:56:28.989Z,5.50
2019-03-23T05:58:59.826Z,5.40
2019-03-23T06:01:30.257Z,5.50
2019-03-23T06:04:00.706Z,5.50
2019-03-23T06:06:31.222Z,5.50
2019-03-23T06:09:01.715Z,5.60
2019-03-23T06:11:32.137Z,5.50
2019-03-23T06:14:03.112Z,5.40
2019-03-23T06:16:33.591Z,5.40
2019-03-23T06:19:04.090Z,5.40
2019-03-23T06:21:34.548Z,5.30
2019-03-23T06:24:05.148Z,5.30
2019-03-23T06:26:35.562Z,5.20
2019-03-23T06:29:06.445Z,5.20
2019-03-23T06:31:36.914Z,5.30
2019-03-23T06:34:07.378Z,5.40
2019-03-23T06:36:37.849Z,5.40
2019-03-23T06:39:09.220Z,5.50
2019-03-23T06:41:40.110Z,5.50
2019-03-23T06:44:10.957Z,5.50
2019-03-23T06:46:41.438Z,5.60
2019-03-23T06:49:11.994Z,5.60
2019-03-23T06:51:42.434Z,5.60
2019-03-23T06:54:12.931Z,5.70
2019-03-23T06:56:43.371Z,5.70
2019-03-23T06:59:14.259Z,5.80
2019-03-23T07:01:44.737Z,5.90
2019-03-23T07:04:15.216Z,5.90
2019-03-23T07:06:45.682Z,5.90
2019-03-23T07:09:16.676Z,6.00
2019-03-23T07:11:47.452Z,6.00
2019-03-23T07:14:18.274Z,6.10
2019-03-23T07:16:48.742Z,6.20
2019-03-23T07:19:19.211Z,6.20
2019-03-23T07:21:49.649Z,6.30
2019-03-23T07:24:20.160Z,6.30
2019-03-23T07:26:50.622Z,6.30
2019-03-23T07:29:21.349Z,6.30
2019-03-23T07:31:51.779Z,6.40
2019-03-23T07:34:22.518Z,6.40
2019-03-23T07:36:53.064Z,6.40
2019-03-23T07:39:28.112Z,6.50
2019-03-23T07:41:55.995Z,6.50
2019-03-23T07:44:26.781Z,6.60
2019-03-23T07:46:57.222Z,6.60
2019-03-23T07:49:27.639Z,6.60
2019-03-23T07:51:58.132Z,6.60
2019-03-23T07:54:28.640Z,6.80
2019-03-23T07:56:59.099Z,6.80
2019-03-23T07:59:29.619Z,6.80
2019-03-23T08:02:00.164Z,6.90
2019-03-23T08:04:30.617Z,6.90
2019-03-23T08:07:01.052Z,6.90
2019-03-23T08:09:37.558Z,6.80
2019-03-23T08:12:03.709Z,6.80
2019-03-23T08:14:36.092Z,6.90
2019-03-23T08:17:06.301Z,6.90
2019-03-23T08:19:36.785Z,7.00
2019-03-23T08:22:07.208Z,7.00
2019-03-23T08:24:37.733Z,7.10
2019-03-23T08:27:08.158Z,7.00
2019-03-23T08:29:38.789Z,7.10
2019-03-23T08:32:09.275Z,7.30
2019-03-23T08:34:39.728Z,7.30
2019-03-23T08:37:10.135Z,7.20
2019-03-23T08:39:48.129Z,7.20
2019-03-23T08:42:12.865Z,7.20
2019-03-23T08:44:43.265Z,7.20
2019-03-23T08:47:13.781Z,7.20
2019-03-23T08:49:44.196Z,7.20
2019-03-23T08:52:14.641Z,7.30
2019-03-23T08:54:45.169Z,7.40
2019-03-23T08:57:15.555Z,7.40
2019-03-23T08:59:46.081Z,7.40
2019-03-23T09:02:16.608Z,7.40
2019-03-23T09:04:47.050Z,7.40
2019-03-23T09:07:17.458Z,7.40
2019-03-23T09:09:58.630Z,7.40
2019-03-23T09:12:20.076Z,7.40
2019-03-23T09:14:50.585Z,7.40
2019-03-23T09:17:21.246Z,7.60
2019-03-23T09:19:51.735Z,7.60
2019-03-23T09:22:22.199Z,7.40
2019-03-23T09:24:57.175Z,7.50
2019-03-23T09:27:24.769Z,7.50
2019-03-23T09:29:55.221Z,7.50
2019-03-23T09:32:25.720Z,7.50
2019-03-23T09:34:56.233Z,7.50
2019-03-23T09:37:26.636Z,7.50
2019-03-23T09:39:58.738Z,7.50
2019-03-23T09:42:29.641Z,7.50
2019-03-23T09:45:00.374Z,7.60
2019-03-23T09:47:30.786Z,7.70
2019-03-23T09:50:01.234Z,7.70
2019-03-23T09:52:31.691Z,7.60
2019-03-23T09:55:02.106Z,7.60
2019-03-23T09:57:32.576Z,7.60
2019-03-23T10:00:03.144Z,7.70
2019-03-23T10:02:33.550Z,7.80
2019-03-23T10:05:04.001Z,7.80
2019-03-23T10:07:34.521Z,7.80
2019-03-23T10:10:05.509Z,7.90
2019-03-23T10:12:35.920Z,7.70
2019-03-23T10:15:07.023Z,7.90
2019-03-23T10:17:37.590Z,8.00
2019-03-23T10:20:08.561Z,8.10
2019-03-23T10:22:39.021Z,8.10
2019-03-23T10:25:09.481Z,8.20
2019-03-23T10:27:39.900Z,8.00
2019-03-23T10:30:10.730Z,8.00
2019-03-23T10:32:41.462Z,7.90
2019-03-23T10:35:12.416Z,7.90
2019-03-23T10:37:42.855Z,7.90
2019-03-23T10:40:13.447Z,8.00
2019-03-23T10:42:44.017Z,8.20
2019-03-23T10:45:15.791Z,8.40
2019-03-23T10:47:46.377Z,8.20
2019-03-23T10:50:16.890Z,8.10
2019-03-23T10:52:47.336Z,8.00
2019-03-23T10:55:17.770Z,8.10
2019-03-23T10:57:48.261Z,8.00
2019-03-23T11:00:18.949Z,8.30
2019-03-23T11:02:49.362Z,8.30
2019-03-23T11:05:19.763Z,8.10
2019-03-23T11:07:50.253Z,8.10
2019-03-23T11:10:20.755Z,8.20
2019-03-23T11:12:51.212Z,8.20
2019-03-23T11:15:22.062Z,8.30
2019-03-23T11:17:52.488Z,8.20
2019-03-23T11:20:23.018Z,8.10
2019-03-23T11:22:53.541Z,8.00
2019-03-23T11:25:24.107Z,8.10
2019-03-23T11:27:54.620Z,8.20
2019-03-23T11:30:25.247Z,8.10
2019-03-23T11:32:55.809Z,8.30
2019-03-23T11:35:26.265Z,8.10
2019-03-23T11:37:56.803Z,8.20
2019-03-23T11:40:27.519Z,8.50
2019-03-23T11:42:58.225Z,8.40
2019-03-23T11:45:28.894Z,8.10
2019-03-23T11:47:59.357Z,8.00
2019-03-23T11:50:29.811Z,8.20
2019-03-23T11:53:00.308Z,8.20
2019-03-23T11:55:30.741Z,8.30
2019-03-23T11:58:01.179Z,8.20
2019-03-23T12:00:32.105Z,8.40
2019-03-23T12:03:02.535Z,8.50
2019-03-23T12:05:32.998Z,8.20
2019-03-23T12:08:03.479Z,8.30
2019-03-23T12:10:33.987Z,8.30
2019-03-23T12:13:04.527Z,8.40
2019-03-23T12:15:35.125Z,8.50
2019-03-23T12:18:05.674Z,8.40
2019-03-23T12:20:36.103Z,8.60
2019-03-23T12:23:06.595Z,8.40
2019-03-23T12:25:37.001Z,8.50
2019-03-23T12:28:07.512Z,8.30
2019-03-23T12:30:38.106Z,8.50
2019-03-23T12:33:08.540Z,8.50
2019-03-23T12:35:38.991Z,8.80
2019-03-23T12:38:09.520Z,8.70
2019-03-23T12:40:40.115Z,8.60
2019-03-23T12:43:10.884Z,9.00
2019-03-23T12:45:41.744Z,8.80
2019-03-23T12:48:12.191Z,9.30
2019-03-23T12:50:42.628Z,9.90
2019-03-23T12:53:13.217Z,9.90
2019-03-23T12:55:43.701Z,10.90
2019-03-23T12:58:14.106Z,10.50
2019-03-23T13:00:44.547Z,10.50
2019-03-23T13:03:15.010Z,11.40
2019-03-23T13:05:45.505Z,10.40
2019-03-23T13:08:15.983Z,10.40
2019-03-23T13:10:46.460Z,10.90
2019-03-23T13:13:16.870Z,10.60
2019-03-23T13:15:47.976Z,11.10
2019-03-23T13:18:26.922Z,10.60
2019-03-23T13:20:50.611Z,11.30
2019-03-23T13:23:21.020Z,11.20
2019-03-23T13:25:51.447Z,11.10
2019-03-23T13:28:21.960Z,11.40
2019-03-23T13:30:52.692Z,11.50
2019-03-23T13:33:23.376Z,11.30
2019-03-23T13:35:53.838Z,11.30
2019-03-23T13:38:24.298Z,11.00
2019-03-23T13:40:54.857Z,11.20
2019-03-23T13:43:25.623Z,11.10
2019-03-23T13:45:56.432Z,11.40
2019-03-23T13:48:26.847Z,12.00
2019-03-23T13:50:57.368Z,11.50
2019-03-23T13:53:28.208Z,11.10
2019-03-23T13:55:58.677Z,11.10
2019-03-23T13:58:29.199Z,11.10
2019-03-23T14:00:59.983Z,11.00
2019-03-23T14:03:30.512Z,11.10
2019-03-23T14:06:01.015Z,10.80
2019-03-23T14:08:32.682Z,10.20
2019-03-23T14:11:03.465Z,10.20
2019-03-23T14:13:33.886Z,10.50
2019-03-23T14:16:04.813Z,10.30
2019-03-23T14:18:35.891Z,10.50
2019-03-23T14:21:06.538Z,10.70
2019-03-23T14:23:36.924Z,10.60
2019-03-23T14:26:07.602Z,10.70
2019-03-23T14:28:38.053Z,10.50
2019-03-23T14:31:08.890Z,10.60
2019-03-23T14:33:40.325Z,10.70
2019-03-23T14:36:10.929Z,10.20
2019-03-23T14:38:41.356Z,10.60
2019-03-23T14:41:12.152Z,10.90
2019-03-23T14:43:43.054Z,10.90
2019-03-23T14:46:15.431Z,11.00
2019-03-23T14:48:46.074Z,11.00
2019-03-23T14:51:16.553Z,10.90
2019-03-23T14:53:46.994Z,10.80
2019-03-23T14:56:17.490Z,10.00
2019-03-23T14:58:47.920Z,9.80
2019-03-23T15:01:18.717Z,10.40
2019-03-23T15:03:49.197Z,11.30
2019-03-23T15:06:19.695Z,11.80
2019-03-23T15:08:50.130Z,12.30
2019-03-23T15:11:20.653Z,11.10
2019-03-23T15:13:51.112Z,10.80
2019-03-23T15:16:21.912Z,10.60
2019-03-23T15:18:52.383Z,11.80
2019-03-23T15:21:22.822Z,11.10
2019-03-23T15:23:53.275Z,10.20
2019-03-23T15:26:23.755Z,10.90
2019-03-23T15:28:54.219Z,10.80
2019-03-23T15:31:25.007Z,10.70
2019-03-23T15:33:55.476Z,11.00
2019-03-23T15:36:25.919Z,11.00
2019-03-23T15:38:56.396Z,11.00
2019-03-23T15:41:26.954Z,10.50
2019-03-23T15:43:57.600Z,10.60
2019-03-23T15:46:28.535Z,11.30
2019-03-23T15:48:59.179Z,11.70
2019-03-23T15:51:29.620Z,11.10
2019-03-23T15:54:00.056Z,11.20
2019-03-23T15:56:30.685Z,11.90
2019-03-23T15:59:01.123Z,11.50
2019-03-23T16:01:31.783Z,10.70
2019-03-23T16:04:02.316Z,11.30
2019-03-23T16:06:32.755Z,11.20
2019-03-23T16:09:03.286Z,11.20
2019-03-23T16:11:33.831Z,11.20
2019-03-23T16:14:04.379Z,10.00
2019-03-23T16:16:35.376Z,10.00
2019-03-23T16:19:05.980Z,9.30
2019-03-23T16:21:36.440Z,9.00
2019-03-23T16:24:06.886Z,8.50
2019-03-23T16:26:37.495Z,8.20
2019-03-23T16:29:09.627Z,8.00
2019-03-23T16:31:40.322Z,7.90
2019-03-23T16:34:10.903Z,7.90
2019-03-23T16:36:41.376Z,7.60
2019-03-23T16:39:11.898Z,7.40
2019-03-23T16:41:42.452Z,7.30
2019-03-23T16:44:13.125Z,7.20
2019-03-23T16:46:43.808Z,7.10
2019-03-23T16:49:14.347Z,7.00
2019-03-23T16:51:44.850Z,6.90
2019-03-23T16:54:15.391Z,6.90
2019-03-23T16:56:45.973Z,6.90
2019-03-23T16:59:16.468Z,6.80
2019-03-23T17:01:47.051Z,6.80
2019-03-23T17:04:17.601Z,6.70
2019-03-23T17:06:48.109Z,6.50
2019-03-23T17:09:18.592Z,6.50
2019-03-23T17:11:49.153Z,6.40
2019-03-23T17:14:19.567Z,6.30
2019-03-23T17:16:50.021Z,6.20
2019-03-23T17:19:20.551Z,6.20
2019-03-23T17:21:51.035Z,6.20
2019-03-23T17:24:21.590Z,6.20
2019-03-23T17:26:52.066Z,6.00
2019-03-23T17:29:22.541Z,6.00
2019-03-23T17:31:53.072Z,5.90
2019-03-23T17:34:23.554Z,5.70
2019-03-23T17:36:53.968Z,5.60
2019-03-23T17:39:24.408Z,5.70
2019-03-23T17:41:54.898Z,5.60
2019-03-23T17:44:25.406Z,5.60
2019-03-23T17:46:56.209Z,5.60
2019-03-23T17:49:26.711Z,5.50
2019-03-23T17:51:57.152Z,5.60
2019-03-23T17:54:27.619Z,5.40
2019-03-23T17:56:58.142Z,5.50
2019-03-23T17:59:28.564Z,5.40
2019-03-23T18:01:58.998Z,5.30
2019-03-23T18:04:29.529Z,5.30
2019-03-23T18:06:59.990Z,5.20
2019-03-23T18:09:30.419Z,5.20
2019-03-23T18:12:00.951Z,5.30
2019-03-23T18:14:31.490Z,5.30
2019-03-23T18:17:01.931Z,5.20
2019-03-23T18:19:32.696Z,5.10
2019-03-23T18:22:03.184Z,5.20
2019-03-23T18:24:33.649Z,5.20
2019-03-23T18:27:04.114Z,5.10
2019-03-23T18:29:34.666Z,5.10
2019-03-23T18:32:05.080Z,5.00
2019-03-23T18:34:35.695Z,4.90
2019-03-23T18:37:06.245Z,4.90
2019-03-23T18:39:36.675Z,4.90
2019-03-23T18:42:07.474Z,4.90
2019-03-23T18:44:38.324Z,4.90
2019-03-23T18:47:08.790Z,5.00
2019-03-23T18:49:39.273Z,4.90
2019-03-23T18:52:09.736Z,4.90
2019-03-23T18:54:40.179Z,4.80
2019-03-23T18:57:10.941Z,4.80
2019-03-23T18:59:41.452Z,4.90
2019-03-23T19:02:11.999Z,4.80
2019-03-23T19:04:42.681Z,4.70
2019-03-23T19:07:13.150Z,4.90
2019-03-23T19:09:43.597Z,4.90
2019-03-23T19:12:14.119Z,4.90
2019-03-23T19:14:44.960Z,5.00
2019-03-23T19:17:15.641Z,4.90
2019-03-23T19:19:48.467Z,4.90
2019-03-23T19:22:18.336Z,4.80
2019-03-23T19:24:48.749Z,4.70
2019-03-23T19:27:19.263Z,4.60
2019-03-23T19:29:49.696Z,4.60
2019-03-23T19:32:20.647Z,4.50
2019-03-23T19:34:51.158Z,4.50
2019-03-23T19:37:21.596Z,4.40
2019-03-23T19:39:52.052Z,4.50
2019-03-23T19:42:22.562Z,4.50
2019-03-23T19:44:53.514Z,4.40
2019-03-23T19:47:23.925Z,4.30
2019-03-23T19:49:54.446Z,4.20
2019-03-23T19:52:24.861Z,4.20
2019-03-23T19:54:55.322Z,4.30
2019-03-23T19:57:25.844Z,4.30
2019-03-23T19:59:56.306Z,4.20
2019-03-23T20:02:26.967Z,4.20
2019-03-23T20:04:57.598Z,4.30
2019-03-23T20:07:33.093Z,4.20
2019-03-23T20:10:00.160Z,4.10
2019-03-23T20:12:30.678Z,4.20
2019-03-23T20:15:01.123Z,4.00
2019-03-23T20:17:31.966Z,4.00
2019-03-23T20:20:02.441Z,4.00
2019-03-23T20:22:33.095Z,4.00
2019-03-23T20:25:03.640Z,4.00
2019-03-23T20:27:34.173Z,3.90
2019-03-23T20:30:05.579Z,3.90
2019-03-23T20:32:36.152Z,3.90
2019-03-23T20:35:07.959Z,3.80
2019-03-23T20:37:38.389Z,3.70
2019-03-23T20:40:12.382Z,3.70
2019-03-23T20:42:43.949Z,3.60
2019-03-23T20:45:18.953Z,3.50
2019-03-23T20:47:49.650Z,3.50
2019-03-23T20:50:20.206Z,3.40
2019-03-23T20:52:50.828Z,3.30
2019-03-23T20:55:31.435Z,3.30
2019-03-23T20:58:01.898Z,3.30
2019-03-23T21:00:32.397Z,3.30
2019-03-23T21:03:03.091Z,3.20
2019-03-23T21:05:34.454Z,3.20
2019-03-23T21:08:04.974Z,3.20
2019-03-23T21:10:35.563Z,3.20
2019-03-23T21:13:06.094Z,3.20
2019-03-23T21:15:36.556Z,3.20
2019-03-23T21:18:07.434Z,3.10
2019-03-23T21:20:37.860Z,3.10
2019-03-23T21:23:08.325Z,3.00
2019-03-23T21:25:38.807Z,3.00
2019-03-23T21:28:09.239Z,3.00
2019-03-23T21:30:39.650Z,2.90
2019-03-23T21:33:10.425Z,2.90
2019-03-23T21:35:40.849Z,2.90
2019-03-23T21:38:11.293Z,2.90
2019-03-23T21:40:41.813Z,2.90
2019-03-23T21:43:12.228Z,3.00
2019-03-23T21:45:43.014Z,3.00
2019-03-23T21:48:13.749Z,3.00
2019-03-23T21:50:47.682Z,2.90
2019-03-23T21:53:16.254Z,2.80
2019-03-23T21:55:46.837Z,2.90
2019-03-23T21:58:17.236Z,2.90
2019-03-23T22:00:47.665Z,2.90
2019-03-23T22:03:18.175Z,2.80
2019-03-23T22:05:48.610Z,2.80
2019-03-23T22:08:19.030Z,2.80
2019-03-23T22:10:49.526Z,2.80
2019-03-23T22:13:19.950Z,2.80
2019-03-23T22:15:50.410Z,2.70
2019-03-23T22:18:21.222Z,2.80
2019-03-23T22:20:51.695Z,2.70
2019-03-23T22:23:22.119Z,2.70
2019-03-23T22:25:52.818Z,2.80
2019-03-23T22:28:23.244Z,2.70
2019-03-23T22:30:53.737Z,2.80
2019-03-23T22:33:24.247Z,2.70
2019-03-23T22:35:54.970Z,2.70
2019-03-23T22:38:25.408Z,2.70
2019-03-23T22:40:55.989Z,2.70
2019-03-23T22:43:26.540Z,2.70
2019-03-23T22:45:57.402Z,2.70
2019-03-23T22:48:28.283Z,2.70
2019-03-23T22:50:58.813Z,2.80
2019-03-23T22:53:29.236Z,3.00
2019-03-23T22:55:59.695Z,3.00
2019-03-23T22:58:30.095Z,3.00
2019-03-23T23:01:01.283Z,3.00
2019-03-23T23:03:31.778Z,3.00
2019-03-23T23:06:02.181Z,2.90
2019-03-23T23:08:32.636Z,2.80
2019-03-23T23:11:03.149Z,2.70
2019-03-23T23:13:33.592Z,2.70
2019-03-23T23:16:04.100Z,2.60
2019-03-23T23:18:34.567Z,2.60
2019-03-23T23:21:04.982Z,2.50
2019-03-23T23:23:35.411Z,2.50
2019-03-23T23:26:06.239Z,2.60
2019-03-23T23:28:36.679Z,2.60
2019-03-23T23:31:07.221Z,2.60
2019-03-23T23:33:37.716Z,2.50
2019-03-23T23:36:08.237Z,2.50
2019-03-23T23:38:38.675Z,2.50
2019-03-23T23:41:09.186Z,2.50
2019-03-23T23:43:39.642Z,2.60
2019-03-23T23:46:10.413Z,2.50
2019-03-23T23:48:50.851Z,2.40
2019-03-23T23:51:13.015Z,2.40
2019-03-23T23:53:43.429Z,2.40
2019-03-23T23:56:13.903Z,2.30
2019-03-23T23:58:44.338Z,2.30
